Alexandria International Airport
KAEX : now visible

Airfield :











YOU CAN JOIN US ON...

 
LOGIN :

Register | Disclaimer

   EN    FR    IT 

 









Legend :    VFR   Marginal VFR   IFR   Intensive IFR   Very Intensive IFR
Visi :
Ceiling :
>= 8 km
>= 3000ft
5 to 8 km
1000 to 3000 ft
1500m to 5 km
500 to 1000 ft
800 to 1500m
200 to 500 ft
< 800m
< 200 ft
Symbols :   Thunderstorms  Fog  Heavy snow  Heavy precipitations  Wind > 20 kt






- Airport Elevation : 89 ft
- IATA code : AEX


KAEX - Alexandria International

CURRENT METAR :
  • 141653Z 00000KT 7SM OVC029 07/04 A3031 RMK AO2 SLP268 T00720039

EXPIRED METARs :
  • 141553Z 35003KT 10SM BKN031 OVC047 07/03 A3030 RMK AO2 SLP264 T00720033

TAF KAEX
Valid from the 14 at 12:00 until the 15 at 12:00 UTC


141149Z 1412/1512 03004KT P6SM VCSH BKN050 OVC080
FM141700 01005KT 5SM -RA BR OVC015
FM142100 02004KT 5SM -RA BR OVC007
FM150300 01004KT P6SM OVC007
FM150900 35003KT P6SM SKC



MET'MAP, your aeronautical weather chart ! - Copyright ORBIFLY December 2007 - Disclaimer

ORBIFLY MET'MAP TEAM :

Programming & Development : Alexandra Zaïnal
Concept & Development : Baudouin d'Aumeries
Co-Development & Prog : Marc-Olivier Méhu
Technical & hardware support : Manuel Goepfert

Contact : metmap@orbifly.com




SOURCES & CREDITS :

   NOAA       Earth
Advisory